Cantua Creek, CA

4:06 PM PDT on July 24, 2014 (GMT -0700)
GFWS112 (KCAKERMA3) Elev 197 ft | 36.65 °N, 120.09 °W | Change Station

Current weather conditions updated 1 minute ago

Clear
Clear
91.6 °F
Feels Like 90 °F
N
3.0
Wind Variable Wind from NNW
Gusts 9.0 mph

Tomorrow is forecast to be Warmer than today.

Today
High -- | Low -- °F
--% Chance of Precip.
Yesterday
High -- | Low -- °F
Precip. -- in
6:01 AM 8:13 PM
Waning Crescent, 4% visible
Pressure 29.83 in
Visibility 10.0 miles
Clouds Few 18000 ft
Scattered Clouds 22000 ft
Heat Index 90 °F
Dew Point 58 °F
Humidity 32%
Rainfall 0.00 in
Snow Depth Not available.
UV 6 out of 12
Pollen 5.70 out of 12
Air Quality Not available.
Flu Activity Not available.
METAR KNLC 242256Z 32009KT 300V010 10SM FEW180 SCT220 34/12 A2983 RMK AO2 SLP099 RH/23 T03440117

More Conditions Fewer Conditions

Pressure 29.83 in
Visibility 10.0 miles
Clouds Few 18000 ft
Scattered Clouds 22000 ft
Heat Index 90 °F
Dew Point 58 °F
Humidity 32%
Rainfall 0.00 in
Snow Depth Not available.
UV 6 out of 12
Pollen 5.70 out of 12
Air Quality Not available.
Flu Activity Not available.
METAR KNLC 242256Z 32009KT 300V010 10SM FEW180 SCT220 34/12 A2983 RMK AO2 SLP099 RH/23 T03440117

More Conditions Fewer Conditions

10-Day Weather Forecast

Almanac

Astronomy

Jul. 24, 2014 Rise Set
Actual Time 6:01 AM PDT 8:13 PM PDT
Civil Twilight 5:32 AM PDT 8:42 PM PDT
Nautical Twilight 4:56 AM PDT 9:18 PM PDT
Astronomical Twilight 4:17 AM PDT 9:57 PM PDT
Moon 4:13 AM PDT 6:33 PM PDT
Length of Visible Light 15h 10m
Length of Day
14h 12m
Tomorrow will be 1m 31s shorter.
Waning Crescent, 4% of the Moon is Illuminated
Today
Waning Crescent
Jul 26
New
Aug 3
First Quarter
Aug 10
Full
Aug 17
Last Quarter

Today's Extremes

State Highs State Lows

Community

WunderPhotos

Upload Photos

1,737,158 photos uploaded!

Nearby

Snow Depth

Station Depth Elevation
Leavitt Meadows 0 in 7200 ft
Summit Meadow 0 in 9122 ft
Rubicon #2 0 in 7500 ft
CSS Lab 3 in 6900 ft
Adin Mountain 0 in 6200 ft

Earthquake Activity

City Distance Mag. Time & Date
Napa, California 161 miles 2.8 9:14 PM PDT
2014-07-19
Bear Valley Springs, California 127 miles 2.7 6:04 PM PDT
2014-07-17
Minimum magnitude displayed is 2.5.

Coastal Water Temperatures

Place Temperature
No Stations Reporting

Nearby Weather Stations

Station Location Temp. Heat Index Dew Point Humidity Wind Precip. Elev Updated Type
MAP MENDOTA (P304) CA , Mendota, CA 95 °F 92 °F 48 °F 20% North  at  11 mph 0.00 in / hr 164 ft 3:00 PM PDT MADIS
GFWS112, Kerman, CA 91.6 °F 90 °F 58 °F 32% NNW  at  3.0 mph 0.00 in / hr 197 ft 4:04 PM PDT Normal
GFWS123, Kerman, CA 90.1 °F 89 °F 59 °F 35% WNW  at  5.0 mph 0.00 in / hr 220 ft 3:55 PM PDT Normal
GFWS45, Raisin City, CA 94.4 °F 95 °F 61 °F 33% NW  at  2.0 mph 0.00 in / hr 223 ft 4:02 PM PDT Normal

Show More Stations Show Fewer Stations